Time;durP1;ratioP1;P1;durP2;ratioP2;P2;SDS_P1;SDS_P2;PMS_P1;PMS_P2;Temp;Humidity;BMP_temperature;BMP_pressure;BME280_temperature;BME280_humidity;BME280_pressure;Samples;Min_cycle;Max_cycle;Signal;HPM_P1;HPM_P2
2024/03/11 00:01:24;;;;;;;2.70;1.00;;;0.50;99.90;;;;;;21127786;28;20429;-49
2024/03/11 00:11:28;;;;;;;6.68;1.58;;;0.90;99.90;;;;;;21137212;28;20043;-47
2024/03/11 00:21:30;;;;;;;5.90;1.10;;;1.20;99.90;;;;;;21166263;28;20031;-44
2024/03/11 00:31:32;;;;;;;10.20;1.75;;;1.30;99.90;;;;;;21165686;28;20032;-48
2024/03/11 00:41:37;;;;;;;7.15;1.00;;;1.50;99.90;;;;;;21164950;28;20053;-43
2024/03/11 00:51:39;;;;;;;6.78;1.90;;;1.60;99.90;;;;;;21163896;28;20111;-45
2024/03/11 01:01:41;;;;;;;6.03;1.70;;;1.80;99.90;;;;;;21145227;28;20085;-45
2024/03/11 01:11:43;;;;;;;4.35;1.38;;;2.00;99.90;;;;;;21156552;28;20028;-46
2024/03/11 01:21:46;;;;;;;3.75;1.08;;;1.90;99.90;;;;;;21061674;28;20028;-45
2024/03/11 01:31:48;;;;;;;6.57;1.20;;;1.70;99.90;;;;;;21076719;28;20040;-47
2024/03/11 01:41:49;;;;;;;3.70;0.90;;;1.50;99.90;;;;;;21074843;28;20032;-48
2024/03/11 01:51:51;;;;;;;3.28;0.52;;;1.20;99.90;;;;;;21074555;28;20123;-48
2024/03/11 02:01:54;;;;;;;1.77;0.80;;;0.80;99.90;;;;;;21043130;28;20035;-46
2024/03/11 02:11:56;;;;;;;6.95;0.82;;;0.40;99.90;;;;;;21103275;28;20435;-48
2024/03/11 02:21:58;;;;;;;2.30;0.70;;;0.20;99.90;;;;;;21143386;28;20027;-45
2024/03/11 02:32:00;;;;;;;1.08;0.50;;;0.10;99.90;;;;;;21119102;28;20027;-44
2024/03/11 02:42:02;;;;;;;9.10;1.17;;;0.00;99.90;;;;;;21139418;28;20036;-46
2024/03/11 02:52:04;;;;;;;4.97;0.80;;;0.00;99.90;;;;;;21125234;28;20035;-47
2024/03/11 03:02:08;;;;;;;3.47;0.55;;;-0.10;99.90;;;;;;21155101;28;20371;-43
2024/03/11 03:12:10;;;;;;;3.15;0.70;;;-0.20;99.90;;;;;;21086532;28;20039;-46
2024/03/11 03:22:16;;;;;;;4.60;0.60;;;0.00;99.90;;;;;;21130565;28;20042;-45
2024/03/11 03:32:19;;;;;;;2.28;0.63;;;0.00;99.90;;;;;;21148040;28;20032;-49
2024/03/11 03:42:22;;;;;;;4.70;1.35;;;0.00;99.90;;;;;;21151626;28;20039;-49
2024/03/11 03:52:24;;;;;;;6.57;1.35;;;0.40;99.90;;;;;;21130111;28;20044;-45
2024/03/11 04:02:26;;;;;;;5.55;1.00;;;0.50;99.90;;;;;;21142095;28;20036;-47
2024/03/11 04:12:29;;;;;;;2.28;0.60;;;0.40;99.90;;;;;;21146073;28;20032;-47
2024/03/11 04:22:30;;;;;;;1.95;0.50;;;0.30;99.90;;;;;;21133117;28;20031;-46
2024/03/11 04:32:32;;;;;;;1.85;0.40;;;0.00;99.90;;;;;;21145301;28;20085;-45
2024/03/11 04:42:34;;;;;;;1.83;0.20;;;0.30;99.90;;;;;;21144254;28;20044;-43
2024/03/11 04:52:36;;;;;;;1.48;0.43;;;0.50;99.90;;;;;;21134147;28;20048;-41
2024/03/11 05:02:39;;;;;;;2.20;0.20;;;0.30;99.90;;;;;;21143772;28;20039;-47
2024/03/11 05:12:41;;;;;;;3.20;0.20;;;0.10;99.90;;;;;;21073413;28;20085;-49
2024/03/11 05:22:44;;;;;;;1.20;0.20;;;0.00;99.90;;;;;;21105350;28;20057;-49
2024/03/11 05:32:46;;;;;;;6.32;0.50;;;0.20;99.90;;;;;;21142173;28;20470;-43
2024/03/11 05:42:48;;;;;;;3.38;0.40;;;0.20;99.90;;;;;;21111983;28;20034;-44
2024/03/11 05:52:50;;;;;;;0.90;0.13;;;0.30;99.90;;;;;;21108640;28;20097;-43
2024/03/11 06:02:55;;;;;;;2.20;0.47;;;0.20;99.90;;;;;;21102235;28;20620;-46
2024/03/11 06:12:57;;;;;;;0.80;0.20;;;0.10;99.90;;;;;;21101266;28;20040;-47
2024/03/11 06:22:59;;;;;;;0.70;0.10;;;0.00;99.90;;;;;;21138695;28;20374;-45
2024/03/11 06:33:01;;;;;;;0.20;0.05;;;0.00;99.90;;;;;;21137333;28;20371;-46
2024/03/11 06:43:03;;;;;;;0.63;0.20;;;-0.10;99.90;;;;;;21110686;28;20039;-44
2024/03/11 06:53:08;;;;;;;1.05;0.22;;;0.20;99.90;;;;;;21103832;28;20096;-50
2024/03/11 07:03:09;;;;;;;0.30;0.10;;;0.50;99.90;;;;;;21103511;28;20069;-48
2024/03/11 07:13:12;;;;;;;2.75;0.28;;;0.70;99.90;;;;;;21115237;28;20058;-44
2024/03/11 07:23:14;;;;;;;3.30;0.20;;;0.90;99.90;;;;;;21117465;28;20031;-45
2024/03/11 07:33:16;;;;;;;1.40;0.30;;;1.50;99.90;;;;;;21145853;28;20027;-46
2024/03/11 07:43:18;;;;;;;0.85;0.10;;;2.00;99.90;;;;;;20917073;28;20048;-42
2024/03/11 07:53:20;;;;;;;0.63;0.00;;;2.70;99.90;;;;;;20969206;28;20094;-45
2024/03/11 08:03:23;;;;;;;1.00;0.20;;;3.30;99.90;;;;;;20926295;28;20462;-46
2024/03/11 08:13:27;;;;;;;2.60;0.30;;;3.90;99.90;;;;;;21130702;28;20052;-45
2024/03/11 08:23:29;;;;;;;0.52;0.10;;;4.30;99.90;;;;;;21146859;28;20046;-46
2024/03/11 08:33:31;;;;;;;0.47;0.20;;;4.50;99.90;;;;;;21166186;28;20516;-48
2024/03/11 08:43:33;;;;;;;1.17;0.30;;;5.00;99.90;;;;;;21163030;28;20032;-44
2024/03/11 08:53:35;;;;;;;0.17;0.10;;;5.40;99.90;;;;;;21126275;28;20048;-49
2024/03/11 09:03:38;;;;;;;1.92;0.40;;;6.20;99.90;;;;;;21109784;28;20085;-48
2024/03/11 09:13:40;;;;;;;0.88;0.50;;;7.20;99.90;;;;;;21132521;28;20437;-46
2024/03/11 09:23:42;;;;;;;2.17;0.70;;;7.50;99.90;;;;;;21133113;28;20539;-50
2024/03/11 09:33:44;;;;;;;1.17;0.70;;;7.80;99.90;;;;;;21093016;28;20085;-46
2024/03/11 09:43:50;;;;;;;1.85;0.70;;;8.10;99.90;;;;;;21118862;28;20032;-46
2024/03/11 09:53:54;;;;;;;0.85;0.40;;;8.40;99.90;;;;;;21141149;28;20051;-47
2024/03/11 10:04:05;;;;;;;1.15;0.50;;;8.50;99.90;;;;;;21138151;28;20482;-48
2024/03/11 10:14:30;;;;;;;0.70;0.50;;;9.00;99.90;;;;;;21123077;28;20036;-42
2024/03/11 10:24:36;;;;;;;0.90;0.35;;;9.50;99.90;;;;;;21111148;28;20035;-41
2024/03/11 10:34:56;;;;;;;1.02;0.32;;;9.90;99.90;;;;;;21119070;28;20545;-42
2024/03/11 10:45:05;;;;;;;1.45;0.20;;;10.40;99.90;;;;;;21028637;28;20036;-45
2024/03/11 10:55:08;;;;;;;2.05;0.20;;;10.70;99.90;;;;;;21069208;28;20043;-42
2024/03/11 11:05:16;;;;;;;2.60;0.40;;;11.20;99.90;;;;;;20987159;28;20093;-45
2024/03/11 11:15:20;;;;;;;0.35;0.20;;;10.80;99.90;;;;;;21003538;28;20475;-41
2024/03/11 11:25:44;;;;;;;1.00;0.30;;;10.70;99.90;;;;;;21017455;28;20032;-41
2024/03/11 11:35:45;;;;;;;1.85;0.52;;;11.40;99.90;;;;;;21028913;28;20032;-41
2024/03/11 11:45:56;;;;;;;1.15;0.70;;;10.70;99.90;;;;;;21069112;28;20028;-42
2024/03/11 11:55:58;;;;;;;1.33;0.85;;;10.10;99.90;;;;;;21050166;28;20055;-42
2024/03/11 12:06:17;;;;;;;2.70;1.10;;;8.70;99.90;;;;;;21023139;28;20029;-48
2024/03/11 12:16:27;;;;;;;1.30;0.90;;;7.70;99.90;;;;;;20999452;28;20032;-41
2024/03/11 12:26:31;;;;;;;2.93;0.53;;;7.20;99.90;;;;;;21073432;28;20039;-46
2024/03/11 12:36:36;;;;;;;0.93;0.80;;;7.20;99.90;;;;;;21159964;28;20040;-45
2024/03/11 12:46:42;;;;;;;0.73;0.40;;;7.20;99.90;;;;;;21134926;28;20044;-48
2024/03/11 12:57:04;;;;;;;1.40;0.70;;;7.20;99.90;;;;;;21090140;28;20040;-48
2024/03/11 13:07:06;;;;;;;2.35;0.50;;;7.80;99.90;;;;;;21060880;28;20109;-44
2024/03/11 13:17:13;;;;;;;2.67;0.50;;;9.70;99.90;;;;;;21061152;28;20145;-47
2024/03/11 13:27:15;;;;;;;1.63;1.38;;;11.30;99.90;;;;;;21078105;28;20085;-42
2024/03/11 13:37:17;;;;;;;3.03;2.05;;;12.00;99.90;;;;;;21137139;28;20036;-42
2024/03/11 13:47:23;;;;;;;3.22;1.80;;;11.00;99.90;;;;;;21137227;28;20040;-41
2024/03/11 13:57:26;;;;;;;4.78;1.75;;;10.70;99.90;;;;;;21115537;28;20109;-41
2024/03/11 14:07:27;;;;;;;2.72;1.60;;;10.70;99.90;;;;;;21131436;28;20031;-49
2024/03/11 14:17:29;;;;;;;2.20;1.40;;;10.60;99.90;;;;;;21118135;28;20348;-46
2024/03/11 14:27:34;;;;;;;2.83;1.90;;;10.10;99.90;;;;;;21146015;28;20077;-46
2024/03/11 14:37:36;;;;;;;3.10;1.60;;;9.70;99.90;;;;;;21108800;28;20028;-45
2024/03/11 14:47:38;;;;;;;3.42;2.30;;;9.40;99.90;;;;;;21075821;28;20036;-43
2024/03/11 14:57:42;;;;;;;5.13;2.33;;;8.70;99.90;;;;;;21012183;28;20036;-41
2024/03/11 15:07:54;;;;;;;3.47;2.20;;;8.40;99.90;;;;;;21035050;28;20058;-40
2024/03/11 15:17:57;;;;;;;6.80;2.78;;;8.40;99.90;;;;;;21065770;28;20020;-43
2024/03/11 15:27:59;;;;;;;6.07;3.45;;;8.10;99.90;;;;;;21039105;28;20024;-41
2024/03/11 15:38:06;;;;;;;4.60;3.40;;;7.60;99.90;;;;;;21024743;28;20036;-44
2024/03/11 15:48:08;;;;;;;5.05;3.42;;;7.00;99.90;;;;;;21000638;28;20044;-49
2024/03/11 15:58:09;;;;;;;5.72;3.10;;;6.60;99.90;;;;;;20995217;28;20375;-45
2024/03/11 16:08:13;;;;;;;6.63;3.08;;;6.10;99.90;;;;;;20999650;28;20098;-46
2024/03/11 16:18:18;;;;;;;9.32;5.20;;;5.90;99.90;;;;;;20972820;28;20484;-47
2024/03/11 16:28:20;;;;;;;7.10;2.42;;;5.30;99.90;;;;;;20991156;28;20033;-44
2024/03/11 16:38:22;;;;;;;5.25;2.38;;;4.60;99.90;;;;;;20961880;28;20146;-43
2024/03/11 16:48:25;;;;;;;0.88;0.30;;;4.00;99.90;;;;;;21004266;28;20051;-42
2024/03/11 16:58:37;;;;;;;1.27;0.57;;;3.50;99.90;;;;;;21079562;28;20104;-42
2024/03/11 17:08:40;;;;;;;0.55;0.30;;;3.00;99.90;;;;;;21078261;28;20548;-43
2024/03/11 17:18:41;;;;;;;1.65;0.70;;;2.80;99.90;;;;;;21078247;28;20028;-44
2024/03/11 17:28:44;;;;;;;1.60;0.10;;;2.60;99.90;;;;;;21075969;28;20032;-43
2024/03/11 17:38:47;;;;;;;0.80;0.20;;;2.20;99.90;;;;;;21076484;28;20027;-47
2024/03/11 17:48:49;;;;;;;2.33;0.17;;;2.10;99.90;;;;;;21064990;28;20130;-43
2024/03/11 17:58:51;;;;;;;0.28;0.10;;;1.80;99.90;;;;;;21049719;28;20039;-44
2024/03/11 18:08:53;;;;;;;0.30;0.10;;;1.70;99.90;;;;;;20995923;28;20565;-48
2024/03/11 18:18:55;;;;;;;0.20;0.10;;;1.50;99.90;;;;;;20988949;28;20036;-46
2024/03/11 18:28:57;;;;;;;1.27;0.20;;;1.50;99.90;;;;;;20989193;28;20025;-49
2024/03/11 18:38:59;;;;;;;0.30;0.10;;;1.50;99.90;;;;;;20989337;28;20403;-49
2024/03/11 18:49:04;;;;;;;0.40;0.20;;;1.50;99.90;;;;;;21000253;28;20106;-43
2024/03/11 18:59:06;;;;;;;1.75;0.30;;;1.50;99.90;;;;;;20989653;28;20036;-44
2024/03/11 19:09:08;;;;;;;1.05;0.40;;;1.50;99.90;;;;;;20974295;28;20032;-44
2024/03/11 19:19:10;;;;;;;0.80;0.13;;;1.60;99.90;;;;;;20952633;28;20028;-47
2024/03/11 19:29:12;;;;;;;0.38;0.20;;;1.60;99.90;;;;;;20990372;28;20036;-43
2024/03/11 19:39:20;;;;;;;0.40;0.20;;;1.60;99.90;;;;;;21002390;28;20051;-43
2024/03/11 19:49:46;;;;;;;0.20;0.10;;;1.50;99.90;;;;;;21033650;28;20102;-41
2024/03/11 20:00:34;;;;;;;2.03;0.30;;;1.50;99.90;;;;;;21084694;28;20040;-44
2024/03/11 20:11:07;;;;;;;2.55;0.43;;;1.50;99.90;;;;;;21051742;28;20044;-45
2024/03/11 20:21:19;;;;;;;0.80;0.25;;;1.50;99.90;;;;;;21044463;28;20078;-46
2024/03/11 20:31:21;;;;;;;0.40;0.20;;;1.50;99.90;;;;;;21082640;28;20036;-45
2024/03/11 20:41:23;;;;;;;1.63;0.70;;;1.50;99.90;;;;;;21080723;28;20047;-43
2024/03/11 20:51:27;;;;;;;0.80;0.50;;;1.40;99.90;;;;;;21076763;28;20044;-44
2024/03/11 21:01:28;;;;;;;2.78;0.47;;;1.50;99.90;;;;;;21079573;28;20332;-43
2024/03/11 21:11:30;;;;;;;2.20;0.40;;;1.80;99.90;;;;;;21074802;28;20101;-41
2024/03/11 21:22:04;;;;;;;0.70;0.32;;;1.90;99.90;;;;;;21069855;28;20028;-44
2024/03/11 21:32:06;;;;;;;2.08;0.20;;;1.90;99.90;;;;;;21073197;28;20058;-44
2024/03/11 21:42:08;;;;;;;0.80;0.20;;;1.70;99.90;;;;;;21076481;28;20035;-48
2024/03/11 21:52:13;;;;;;;1.02;0.17;;;1.80;99.90;;;;;;21033728;28;20518;-43
2024/03/11 22:02:14;;;;;;;0.90;0.20;;;1.80;99.90;;;;;;20991711;28;20032;-46
2024/03/11 22:12:17;;;;;;;0.45;0.30;;;1.80;99.90;;;;;;20972811;28;20028;-41
2024/03/11 22:22:19;;;;;;;1.55;0.30;;;1.80;99.90;;;;;;21001708;28;20032;-41
2024/03/11 22:32:21;;;;;;;0.68;0.10;;;1.90;99.90;;;;;;20988434;28;20032;-44
2024/03/11 22:42:25;;;;;;;0.47;0.20;;;1.80;99.90;;;;;;20988014;28;20083;-43
2024/03/11 22:52:27;;;;;;;0.25;0.10;;;2.00;99.90;;;;;;21022351;28;20458;-44
2024/03/11 23:02:29;;;;;;;1.45;0.15;;;2.10;99.90;;;;;;20998290;28;20037;-45
2024/03/11 23:12:30;;;;;;;0.52;0.20;;;2.30;99.90;;;;;;20949558;28;20043;-43
2024/03/11 23:22:33;;;;;;;0.30;0.10;;;2.40;99.90;;;;;;20968427;28;20040;-46
2024/03/11 23:32:37;;;;;;;0.40;0.17;;;2.30;99.90;;;;;;20968388;28;20029;-45
2024/03/11 23:42:39;;;;;;;0.30;0.10;;;2.20;99.90;;;;;;20984696;28;20115;-44
2024/03/11 23:52:42;;;;;;;1.10;0.25;;;2.50;99.90;;;;;;20966361;28;20055;-46
